Terminal Aerodrome Forecast
Issued by NWS Wilmington, OH

Current Version | Previous Version | Graphics & Text | Print | Product List | Glossary On
Versions: 1 2 3 4 5 6 7 8 9 10 11 12 13 14 15 16 17
333
FTUS41 KILN 220747 AAA
TAFILN
TAF AMD
KILN 220747Z 2208/2306 30009KT P6SM SCT250
      TEMPO 2208/2210 30011G20KT
     FM222100 VRB05KT P6SM SCT250=

USA.gov is the U.S. government's official web portal to all federal, state and local government web resources and services.